createdAt,value
2023-05-08T00:00:27.534Z,13.60
2023-05-08T00:02:53.492Z,13.59
2023-05-08T00:05:19.584Z,13.65
2023-05-08T00:07:45.472Z,13.60
2023-05-08T00:10:11.994Z,13.69
2023-05-08T00:12:38.215Z,13.58
2023-05-08T00:15:04.963Z,13.59
2023-05-08T00:17:31.485Z,13.59
2023-05-08T00:19:57.290Z,13.52
2023-05-08T00:22:23.155Z,13.63
2023-05-08T00:24:49.132Z,13.59
2023-05-08T00:27:15.042Z,13.55
2023-05-08T00:29:41.201Z,13.55
2023-05-08T00:32:07.443Z,13.39
2023-05-08T00:34:33.478Z,13.51
2023-05-08T00:36:59.424Z,13.58
2023-05-08T00:39:25.328Z,13.46
2023-05-08T00:41:51.310Z,13.39
2023-05-08T00:44:17.274Z,13.45
2023-05-08T00:46:44.218Z,13.46
2023-05-08T00:49:12.489Z,13.46
2023-05-08T00:51:44.051Z,13.41
2023-05-08T00:54:10.722Z,13.35
2023-05-08T00:56:37.826Z,13.41
2023-05-08T00:59:09.217Z,13.38
2023-05-08T01:01:40.143Z,13.33
2023-05-08T01:04:06.719Z,13.35
2023-05-08T01:06:38.982Z,13.39
2023-05-08T01:09:04.870Z,13.44
2023-05-08T01:11:37.725Z,13.25
2023-05-08T01:14:35.446Z,13.22
2023-05-08T01:17:07.269Z,13.22
2023-05-08T01:20:01.700Z,13.26
2023-05-08T01:23:02.690Z,13.04
2023-05-08T01:26:06.674Z,13.13
2023-05-08T01:28:51.421Z,13.03
2023-05-08T01:31:35.712Z,12.94
2023-05-08T01:34:23.662Z,12.83
2023-05-08T01:37:12.259Z,12.74
2023-05-08T01:39:50.609Z,12.80
2023-05-08T01:42:32.837Z,12.73
2023-05-08T01:45:15.119Z,12.70
2023-05-08T01:47:43.476Z,12.80
2023-05-08T01:50:18.724Z,12.89
2023-05-08T01:53:07.922Z,12.84
2023-05-08T01:55:36.786Z,12.94
2023-05-08T01:58:07.056Z,12.96
2023-05-08T02:00:33.009Z,13.01
2023-05-08T02:03:00.093Z,12.92
2023-05-08T02:05:27.322Z,13.01
2023-05-08T02:07:54.653Z,13.03
2023-05-08T02:10:24.514Z,12.87
2023-05-08T02:12:51.600Z,12.68
2023-05-08T02:15:18.305Z,12.64
2023-05-08T02:17:47.962Z,12.67
2023-05-08T02:20:15.411Z,12.59
2023-05-08T02:22:44.036Z,12.44
2023-05-08T02:25:13.867Z,12.46
2023-05-08T02:27:44.835Z,12.52
2023-05-08T02:30:14.509Z,12.38
2023-05-08T02:32:43.152Z,12.51
2023-05-08T02:35:12.972Z,12.54
2023-05-08T02:37:41.932Z,12.56
2023-05-08T02:40:10.684Z,12.45
2023-05-08T02:42:37.099Z,12.39
2023-05-08T02:45:04.107Z,12.38
2023-05-08T02:47:46.784Z,12.29
2023-05-08T02:50:19.815Z,12.30
2023-05-08T02:52:50.379Z,12.29
2023-05-08T02:55:28.080Z,12.28
2023-05-08T02:58:07.291Z,12.19
2023-05-08T03:00:44.350Z,12.19
2023-05-08T03:03:23.729Z,12.11
2023-05-08T03:05:59.042Z,12.16
2023-05-08T03:08:33.912Z,12.07
2023-05-08T03:11:04.930Z,12.13
2023-05-08T03:13:33.795Z,12.23
2023-05-08T03:16:01.568Z,12.26
2023-05-08T03:18:42.234Z,12.22
2023-05-08T03:21:10.495Z,12.23
2023-05-08T03:23:38.515Z,12.29
2023-05-08T03:26:05.876Z,12.28
2023-05-08T03:28:32.313Z,12.34
2023-05-08T03:31:00.050Z,12.17
2023-05-08T03:33:28.223Z,12.09
2023-05-08T03:35:55.576Z,12.26
2023-05-08T03:38:23.675Z,12.14
2023-05-08T03:40:49.721Z,12.13
2023-05-08T03:43:16.846Z,12.12
2023-05-08T03:45:44.146Z,12.11
2023-05-08T03:48:10.430Z,12.15
2023-05-08T03:50:37.205Z,12.26
2023-05-08T03:53:03.257Z,12.07
2023-05-08T03:55:32.547Z,12.01
2023-05-08T03:58:17.826Z,12.00
2023-05-08T04:01:17.881Z,11.94
2023-05-08T04:04:02.227Z,12.09
2023-05-08T04:06:45.853Z,12.02
2023-05-08T04:09:33.784Z,12.01
2023-05-08T04:12:11.702Z,11.94
2023-05-08T04:14:44.701Z,11.86
2023-05-08T04:17:14.874Z,11.70
2023-05-08T04:19:46.025Z,11.74
2023-05-08T04:22:12.472Z,11.89
2023-05-08T04:24:45.070Z,11.95
2023-05-08T04:27:12.437Z,11.92
2023-05-08T04:29:38.822Z,11.97
2023-05-08T04:32:05.775Z,11.98
2023-05-08T04:34:31.830Z,12.00
2023-05-08T04:36:57.811Z,12.07
2023-05-08T04:39:23.733Z,12.12
2023-05-08T04:41:51.759Z,12.13
2023-05-08T04:44:17.820Z,12.09
2023-05-08T04:46:43.747Z,12.21
2023-05-08T04:49:09.619Z,12.18
2023-05-08T04:51:35.595Z,12.15
2023-05-08T04:54:01.421Z,12.18
2023-05-08T04:56:27.343Z,12.15
2023-05-08T04:58:53.359Z,12.13
2023-05-08T05:01:19.195Z,11.97
2023-05-08T05:03:45.068Z,12.01
2023-05-08T05:06:11.420Z,11.81
2023-05-08T05:08:37.295Z,11.89
2023-05-08T05:11:03.114Z,11.70
2023-05-08T05:13:29.000Z,11.75
2023-05-08T05:15:56.200Z,11.66
2023-05-08T05:18:23.404Z,11.60
2023-05-08T05:20:49.231Z,11.68
2023-05-08T05:23:15.047Z,11.82
2023-05-08T05:25:41.039Z,11.87
2023-05-08T05:28:06.874Z,11.99
2023-05-08T05:30:32.980Z,11.98
2023-05-08T05:32:59.197Z,12.09
2023-05-08T05:35:25.749Z,12.02
2023-05-08T05:37:51.725Z,11.97
2023-05-08T05:40:17.500Z,12.09
2023-05-08T05:42:49.153Z,12.07
2023-05-08T05:45:15.294Z,12.23
2023-05-08T05:47:46.149Z,12.24
2023-05-08T05:50:12.321Z,12.24
2023-05-08T05:52:38.249Z,12.39
2023-05-08T05:55:04.591Z,12.23
2023-05-08T05:57:30.354Z,12.36
2023-05-08T05:59:56.140Z,12.36
2023-05-08T06:02:22.064Z,12.44
2023-05-08T06:04:49.355Z,12.28
2023-05-08T06:07:15.411Z,12.28
2023-05-08T06:09:41.204Z,12.48
2023-05-08T06:12:07.513Z,12.55
2023-05-08T06:14:33.605Z,12.52
2023-05-08T06:16:59.471Z,12.58
2023-05-08T06:19:25.522Z,12.54
2023-05-08T06:21:51.502Z,12.39
2023-05-08T06:24:17.432Z,12.55
2023-05-08T06:26:43.210Z,12.54
2023-05-08T06:29:08.979Z,12.39
2023-05-08T06:31:34.796Z,12.53
2023-05-08T06:34:00.654Z,12.38
2023-05-08T06:36:26.542Z,12.20
2023-05-08T06:38:52.375Z,12.19
2023-05-08T06:41:18.188Z,12.36
2023-05-08T06:43:46.614Z,12.46
2023-05-08T06:46:12.619Z,12.35
2023-05-08T06:48:38.450Z,12.51
2023-05-08T06:51:04.350Z,12.62
2023-05-08T06:53:30.481Z,12.60
2023-05-08T06:55:59.102Z,12.74
2023-05-08T06:58:25.148Z,12.81
2023-05-08T07:00:50.978Z,12.82
2023-05-08T07:03:16.766Z,12.80
2023-05-08T07:05:42.563Z,12.78
2023-05-08T07:08:08.377Z,12.70
2023-05-08T07:10:34.655Z,12.68
2023-05-08T07:13:00.953Z,12.70
2023-05-08T07:15:27.267Z,12.94
2023-05-08T07:17:53.253Z,13.05
2023-05-08T07:20:19.639Z,13.08
2023-05-08T07:22:45.898Z,13.06
2023-05-08T07:25:12.209Z,13.10
2023-05-08T07:27:38.186Z,12.90
2023-05-08T07:30:04.761Z,12.95
2023-05-08T07:32:31.024Z,13.09
2023-05-08T07:34:56.869Z,13.11
2023-05-08T07:37:22.819Z,13.16
2023-05-08T07:39:48.926Z,13.22
2023-05-08T07:42:14.762Z,13.12
2023-05-08T07:44:47.204Z,13.16
2023-05-08T07:47:19.294Z,13.33
2023-05-08T07:49:45.124Z,13.28
2023-05-08T07:52:10.905Z,13.23
2023-05-08T07:54:36.723Z,13.39
2023-05-08T07:57:02.569Z,13.44
2023-05-08T07:59:28.450Z,13.30
2023-05-08T08:01:54.608Z,13.38
2023-05-08T08:04:20.440Z,13.24
2023-05-08T08:06:46.393Z,13.29
2023-05-08T08:09:12.149Z,13.19
2023-05-08T08:11:37.940Z,12.98
2023-05-08T08:14:03.709Z,13.05
2023-05-08T08:16:29.644Z,12.98
2023-05-08T08:18:55.678Z,12.81
2023-05-08T08:21:21.514Z,13.06
2023-05-08T08:23:47.356Z,13.03
2023-05-08T08:26:13.179Z,13.00
2023-05-08T08:28:39.121Z,13.08
2023-05-08T08:31:05.013Z,13.04
2023-05-08T08:33:30.898Z,13.00
2023-05-08T08:35:56.715Z,13.12
2023-05-08T08:38:23.504Z,13.10
2023-05-08T08:40:49.553Z,13.07
2023-05-08T08:43:15.445Z,13.09
2023-05-08T08:45:41.359Z,13.04
2023-05-08T08:48:13.689Z,13.06
2023-05-08T08:50:43.470Z,12.95
2023-05-08T08:53:23.785Z,13.00
2023-05-08T08:55:53.069Z,12.95
2023-05-08T08:58:30.659Z,12.91
2023-05-08T09:00:58.924Z,13.02
2023-05-08T09:03:24.999Z,13.06
2023-05-08T09:05:51.158Z,12.97
2023-05-08T09:08:18.016Z,12.93
2023-05-08T09:10:43.833Z,13.08
2023-05-08T09:13:09.941Z,12.85
2023-05-08T09:15:35.757Z,12.78
2023-05-08T09:18:02.007Z,12.91
2023-05-08T09:20:28.360Z,13.01
2023-05-08T09:22:55.128Z,12.88
2023-05-08T09:25:21.155Z,12.93
2023-05-08T09:27:47.056Z,12.74
2023-05-08T09:30:16.097Z,12.92
2023-05-08T09:32:44.249Z,13.06
2023-05-08T09:35:11.530Z,13.21
2023-05-08T09:37:39.819Z,13.32
2023-05-08T09:40:20.135Z,13.46
2023-05-08T09:42:48.357Z,13.65
2023-05-08T09:45:28.930Z,13.40
2023-05-08T09:47:55.211Z,13.43
2023-05-08T09:50:21.079Z,13.48
2023-05-08T09:52:48.682Z,13.85
2023-05-08T09:55:14.760Z,14.13
2023-05-08T09:57:53.275Z,14.56
2023-05-08T10:00:19.878Z,14.61
2023-05-08T10:03:06.496Z,15.03
2023-05-08T10:05:35.089Z,15.18
2023-05-08T10:08:25.081Z,15.38
2023-05-08T10:10:51.206Z,15.54
2023-05-08T10:13:17.027Z,15.70
2023-05-08T10:15:44.390Z,15.86
2023-05-08T10:18:13.511Z,16.03
2023-05-08T10:20:41.886Z,16.09
2023-05-08T10:23:13.728Z,16.10
2023-05-08T10:25:47.454Z,15.89
2023-05-08T10:28:23.539Z,15.84
2023-05-08T10:30:49.943Z,15.87
2023-05-08T10:33:22.095Z,15.73
2023-05-08T10:35:48.409Z,15.52
2023-05-08T10:38:15.807Z,15.49
2023-05-08T10:40:42.127Z,15.29
2023-05-08T10:43:09.104Z,15.14
2023-05-08T10:45:36.465Z,15.28
2023-05-08T10:48:19.878Z,15.24
2023-05-08T10:51:08.348Z,15.27
2023-05-08T10:53:51.952Z,15.30
2023-05-08T10:56:17.864Z,15.28
2023-05-08T10:58:43.715Z,15.21
2023-05-08T11:01:10.837Z,15.07
2023-05-08T11:03:42.759Z,15.21
2023-05-08T11:06:09.415Z,15.43
2023-05-08T11:08:45.984Z,15.51
2023-05-08T11:11:26.930Z,15.56
2023-05-08T11:14:08.873Z,15.57
2023-05-08T11:16:52.560Z,15.51
2023-05-08T11:19:22.928Z,15.52
2023-05-08T11:22:14.891Z,15.34
2023-05-08T11:24:53.688Z,15.43
2023-05-08T11:27:35.353Z,15.38
2023-05-08T11:30:31.919Z,15.60
2023-05-08T11:33:03.940Z,15.78
2023-05-08T11:35:49.954Z,15.87
2023-05-08T11:38:23.508Z,15.88
2023-05-08T11:40:59.965Z,15.95
2023-05-08T11:43:31.939Z,15.83
2023-05-08T11:46:15.006Z,15.86
2023-05-08T11:48:42.042Z,15.83
2023-05-08T11:51:08.742Z,15.83
2023-05-08T11:53:35.727Z,15.83
2023-05-08T11:56:02.820Z,15.77
2023-05-08T11:58:29.006Z,15.71
2023-05-08T12:00:55.271Z,15.64
2023-05-08T12:03:24.594Z,15.51
2023-05-08T12:05:50.812Z,15.48
2023-05-08T12:08:17.656Z,15.53
2023-05-08T12:10:46.868Z,15.43
2023-05-08T12:13:18.241Z,15.41
2023-05-08T12:15:55.754Z,15.21
2023-05-08T12:18:23.476Z,15.22
2023-05-08T12:21:07.407Z,15.20
2023-05-08T12:23:33.189Z,15.33
2023-05-08T12:26:00.317Z,15.32
2023-05-08T12:28:26.569Z,15.51
2023-05-08T12:30:53.290Z,15.28
2023-05-08T12:33:20.103Z,15.55
2023-05-08T12:35:46.124Z,15.49
2023-05-08T12:38:12.343Z,15.26
2023-05-08T12:40:43.270Z,15.42
2023-05-08T12:43:10.115Z,15.42
2023-05-08T12:45:41.363Z,15.56
2023-05-08T12:48:09.958Z,15.66
2023-05-08T12:50:38.476Z,15.62
2023-05-08T12:53:06.519Z,15.88
2023-05-08T12:55:34.549Z,15.99
2023-05-08T12:58:04.855Z,16.00
2023-05-08T13:00:51.086Z,15.74
2023-05-08T13:03:25.888Z,15.74
2023-05-08T13:05:53.049Z,15.61
2023-05-08T13:08:19.004Z,15.55
2023-05-08T13:10:54.767Z,15.69
2023-05-08T13:13:22.843Z,15.63
2023-05-08T13:15:49.931Z,15.82
2023-05-08T13:18:17.070Z,15.77
2023-05-08T13:20:43.072Z,15.79
2023-05-08T13:23:09.672Z,15.77
2023-05-08T13:25:40.021Z,15.87
2023-05-08T13:28:07.043Z,15.91
2023-05-08T13:30:35.494Z,15.90
2023-05-08T13:33:02.246Z,16.06
2023-05-08T13:35:28.261Z,15.93
2023-05-08T13:37:55.113Z,16.02
2023-05-08T13:40:20.995Z,16.12
2023-05-08T13:42:46.854Z,16.13
2023-05-08T13:45:15.902Z,16.20
2023-05-08T13:47:42.411Z,16.27
2023-05-08T13:50:09.785Z,16.08
2023-05-08T13:52:37.102Z,16.17
2023-05-08T13:55:05.782Z,16.39
2023-05-08T13:57:31.834Z,16.35
2023-05-08T13:59:57.646Z,16.40
2023-05-08T14:02:23.736Z,16.47
2023-05-08T14:04:49.721Z,16.51
2023-05-08T14:07:17.634Z,16.53
2023-05-08T14:09:44.705Z,16.49
2023-05-08T14:12:11.649Z,16.57
2023-05-08T14:14:37.470Z,16.68
2023-05-08T14:17:04.306Z,16.80
2023-05-08T14:19:30.593Z,16.99
2023-05-08T14:21:56.536Z,16.85
2023-05-08T14:24:22.406Z,17.03
2023-05-08T14:26:48.318Z,17.09
2023-05-08T14:29:14.344Z,17.04
2023-05-08T14:31:40.414Z,17.05
2023-05-08T14:34:06.243Z,17.05
2023-05-08T14:36:32.259Z,16.80
2023-05-08T14:38:58.132Z,16.75
2023-05-08T14:41:28.069Z,16.76
2023-05-08T14:43:54.149Z,16.63
2023-05-08T14:46:20.102Z,16.68
2023-05-08T14:48:46.068Z,16.69
2023-05-08T14:51:13.286Z,16.72
2023-05-08T14:53:40.302Z,16.77
2023-05-08T14:56:06.994Z,16.63
2023-05-08T14:58:33.008Z,16.71
2023-05-08T15:00:58.895Z,16.69
2023-05-08T15:03:25.172Z,16.81
2023-05-08T15:05:51.570Z,16.85
2023-05-08T15:08:17.611Z,16.90
2023-05-08T15:10:43.514Z,16.88
2023-05-08T15:13:09.531Z,16.77
2023-05-08T15:15:35.398Z,16.95
2023-05-08T15:18:01.325Z,17.04
2023-05-08T15:20:29.806Z,17.14
2023-05-08T15:22:55.631Z,17.33
2023-05-08T15:25:21.386Z,17.30
2023-05-08T15:27:51.902Z,17.23
2023-05-08T15:30:18.948Z,17.31
2023-05-08T15:32:45.197Z,17.44
2023-05-08T15:35:11.139Z,17.51
2023-05-08T15:37:37.621Z,17.72
2023-05-08T15:40:03.887Z,17.99
2023-05-08T15:42:29.893Z,18.25
2023-05-08T15:44:58.800Z,18.62
2023-05-08T15:47:26.579Z,18.67
2023-05-08T15:49:53.345Z,18.20
2023-05-08T15:52:19.417Z,17.70
2023-05-08T15:54:46.318Z,17.50
2023-05-08T15:57:12.580Z,17.41
2023-05-08T15:59:38.443Z,17.40
2023-05-08T16:02:04.727Z,17.43
2023-05-08T16:04:30.704Z,17.29
2023-05-08T16:06:58.422Z,17.08
2023-05-08T16:09:24.690Z,17.10
2023-05-08T16:11:50.620Z,17.13
2023-05-08T16:14:16.406Z,16.92
2023-05-08T16:16:42.673Z,17.10
2023-05-08T16:19:08.559Z,17.54
2023-05-08T16:21:34.489Z,17.58
2023-05-08T16:24:01.261Z,17.70
2023-05-08T16:26:27.140Z,17.48
2023-05-08T16:28:52.970Z,17.39
2023-05-08T16:31:18.822Z,17.39
2023-05-08T16:33:44.622Z,17.28
2023-05-08T16:36:10.536Z,17.29
2023-05-08T16:38:36.398Z,17.03
2023-05-08T16:41:06.630Z,16.94
2023-05-08T16:43:32.588Z,16.99
2023-05-08T16:45:59.421Z,16.94
2023-05-08T16:48:26.083Z,17.04
2023-05-08T16:50:52.307Z,17.25
2023-05-08T16:53:18.215Z,17.31
2023-05-08T16:55:44.117Z,17.58
2023-05-08T16:58:10.477Z,17.91
2023-05-08T17:00:36.381Z,18.21
2023-05-08T17:03:02.326Z,18.16
2023-05-08T17:05:28.342Z,17.83
2023-05-08T17:07:54.633Z,17.61
2023-05-08T17:10:20.868Z,17.73
2023-05-08T17:12:46.846Z,17.60
2023-05-08T17:15:12.872Z,17.57
2023-05-08T17:17:38.940Z,17.41
2023-05-08T17:20:05.551Z,17.53
2023-05-08T17:22:31.491Z,17.46
2023-05-08T17:24:57.326Z,17.29
2023-05-08T17:27:23.254Z,17.27
2023-05-08T17:29:49.209Z,17.06
2023-05-08T17:32:15.160Z,16.91
2023-05-08T17:34:41.053Z,16.69
2023-05-08T17:37:06.980Z,16.57
2023-05-08T17:39:32.866Z,16.49
2023-05-08T17:41:58.662Z,16.48
2023-05-08T17:44:24.568Z,16.51
2023-05-08T17:46:50.530Z,16.35
2023-05-08T17:49:19.075Z,16.17
2023-05-08T17:51:45.468Z,16.03
2023-05-08T17:54:11.376Z,16.07
2023-05-08T17:56:37.453Z,16.04
2023-05-08T17:59:03.427Z,15.88
2023-05-08T18:01:29.557Z,15.80
2023-05-08T18:03:55.873Z,15.77
2023-05-08T18:06:21.869Z,15.86
2023-05-08T18:08:48.157Z,15.82
2023-05-08T18:11:25.138Z,15.87
2023-05-08T18:13:54.432Z,15.62
2023-05-08T18:16:21.548Z,15.46
2023-05-08T18:18:48.850Z,15.61
2023-05-08T18:21:15.189Z,15.42
2023-05-08T18:23:41.303Z,15.43
2023-05-08T18:26:07.187Z,15.41
2023-05-08T18:28:35.512Z,15.47
2023-05-08T18:31:02.363Z,15.48
2023-05-08T18:33:28.396Z,15.31
2023-05-08T18:35:55.110Z,15.29
2023-05-08T18:38:21.702Z,15.37
2023-05-08T18:40:47.750Z,15.28
2023-05-08T18:43:13.858Z,15.26
2023-05-08T18:45:40.530Z,15.21
2023-05-08T18:48:09.306Z,15.13
2023-05-08T18:50:35.615Z,15.10
2023-05-08T18:53:01.779Z,15.03
2023-05-08T18:55:27.713Z,14.97
2023-05-08T18:57:54.742Z,15.07
2023-05-08T19:00:20.886Z,14.89
2023-05-08T19:02:47.078Z,14.96
2023-05-08T19:05:13.227Z,14.93
2023-05-08T19:07:39.717Z,14.89
2023-05-08T19:10:06.689Z,14.82
2023-05-08T19:12:32.999Z,14.75
2023-05-08T19:14:58.928Z,14.87
2023-05-08T19:17:25.137Z,14.88
2023-05-08T19:19:53.714Z,14.75
2023-05-08T19:22:19.704Z,14.73
2023-05-08T19:24:45.745Z,14.65
2023-05-08T19:27:11.763Z,14.86
2023-05-08T19:29:37.654Z,14.77
2023-05-08T19:32:04.374Z,14.59
2023-05-08T19:34:31.505Z,14.61
2023-05-08T19:36:57.656Z,14.65
2023-05-08T19:39:23.471Z,14.54
2023-05-08T19:41:49.355Z,14.54
2023-05-08T19:44:15.193Z,14.46
2023-05-08T19:46:41.883Z,14.42
2023-05-08T19:49:07.899Z,14.41
2023-05-08T19:51:33.883Z,14.26
2023-05-08T19:53:59.838Z,14.28
2023-05-08T19:56:26.009Z,14.31
2023-05-08T19:58:51.937Z,14.30
2023-05-08T20:01:18.186Z,14.28
2023-05-08T20:03:44.254Z,14.28
2023-05-08T20:06:10.487Z,14.31
2023-05-08T20:08:36.434Z,14.33
2023-05-08T20:11:03.344Z,14.30
2023-05-08T20:13:31.865Z,14.27
2023-05-08T20:15:57.988Z,14.21
2023-05-08T20:18:24.713Z,14.12
2023-05-08T20:20:50.605Z,14.17
2023-05-08T20:23:16.483Z,14.12
2023-05-08T20:25:45.592Z,14.15
2023-05-08T20:28:11.526Z,14.07
2023-05-08T20:30:37.440Z,14.01
2023-05-08T20:33:04.152Z,13.97
2023-05-08T20:35:33.163Z,14.01
2023-05-08T20:37:59.031Z,14.03
2023-05-08T20:40:25.026Z,14.04
2023-05-08T20:42:50.827Z,14.00
2023-05-08T20:45:16.690Z,14.03
2023-05-08T20:47:42.803Z,14.00
2023-05-08T20:50:08.859Z,14.08
2023-05-08T20:52:36.030Z,14.00
2023-05-08T20:55:04.016Z,13.91
2023-05-08T20:57:30.008Z,13.95
2023-05-08T20:59:55.857Z,13.94
2023-05-08T21:02:21.650Z,13.99
2023-05-08T21:04:47.761Z,14.01
2023-05-08T21:07:13.596Z,14.00
2023-05-08T21:09:39.605Z,14.07
2023-05-08T21:12:05.842Z,13.99
2023-05-08T21:14:31.652Z,13.94
2023-05-08T21:16:57.669Z,13.94
2023-05-08T21:19:23.551Z,13.74
2023-05-08T21:21:49.409Z,13.74
2023-05-08T21:24:15.287Z,13.77
2023-05-08T21:26:41.106Z,13.73
2023-05-08T21:29:07.158Z,13.76
2023-05-08T21:31:34.852Z,13.68
2023-05-08T21:34:01.871Z,13.73
2023-05-08T21:36:28.569Z,13.68
2023-05-08T21:38:54.852Z,13.71
2023-05-08T21:41:21.406Z,13.71
2023-05-08T21:43:48.150Z,13.79
2023-05-08T21:46:14.055Z,13.69
2023-05-08T21:48:40.008Z,13.69
2023-05-08T21:51:06.174Z,13.75
2023-05-08T21:53:32.345Z,13.76
2023-05-08T21:55:58.862Z,13.72
2023-05-08T21:58:24.764Z,13.74
2023-05-08T22:00:50.557Z,13.72
2023-05-08T22:03:16.901Z,13.60
2023-05-08T22:05:46.490Z,13.67
2023-05-08T22:08:12.310Z,13.73
2023-05-08T22:10:38.196Z,13.66
2023-05-08T22:13:05.758Z,13.64
2023-05-08T22:15:31.627Z,13.63
2023-05-08T22:17:58.578Z,13.69
2023-05-08T22:20:24.909Z,13.54
2023-05-08T22:22:50.738Z,13.57
2023-05-08T22:25:16.619Z,13.57
2023-05-08T22:27:42.481Z,13.64
2023-05-08T22:30:08.462Z,13.68
2023-05-08T22:32:34.615Z,13.64
2023-05-08T22:35:00.385Z,13.61
2023-05-08T22:37:26.198Z,13.58
2023-05-08T22:39:52.105Z,13.59
2023-05-08T22:42:18.056Z,13.52
2023-05-08T22:44:44.733Z,13.50
2023-05-08T22:47:11.380Z,13.46
2023-05-08T22:49:41.378Z,13.58
2023-05-08T22:52:08.368Z,13.53
2023-05-08T22:54:34.526Z,13.44
2023-05-08T22:57:00.917Z,13.43
2023-05-08T22:59:26.660Z,13.40
2023-05-08T23:01:52.493Z,13.46
2023-05-08T23:04:18.579Z,13.52
2023-05-08T23:06:44.403Z,13.51
2023-05-08T23:09:10.264Z,13.64
2023-05-08T23:11:36.171Z,13.72
2023-05-08T23:14:02.001Z,13.60
2023-05-08T23:16:29.223Z,13.61
2023-05-08T23:18:55.101Z,13.63
2023-05-08T23:21:20.994Z,13.62
2023-05-08T23:23:48.000Z,13.68
2023-05-08T23:26:13.901Z,13.56
2023-05-08T23:28:39.779Z,13.56
2023-05-08T23:31:05.660Z,13.57
2023-05-08T23:33:31.452Z,13.59
2023-05-08T23:35:58.488Z,13.51
2023-05-08T23:38:24.664Z,13.44
2023-05-08T23:40:50.687Z,13.58
2023-05-08T23:43:17.128Z,13.61
2023-05-08T23:45:43.528Z,13.56
2023-05-08T23:48:09.622Z,13.58
2023-05-08T23:50:35.484Z,13.48
2023-05-08T23:53:01.495Z,13.54
2023-05-08T23:55:27.301Z,13.50
2023-05-08T23:57:53.098Z,13.62
